Barr Trail Mtn Race

Overall Results

July 14, 2013


Results by Pikes Peak Road Runners. E-mail any corrections/questions to raceresults@pprrun.org
This race is chip timed. Results are based on gun time. Chip time is
shown for informational purposes only.

If you have questions about the results, please send an e mail to
John Garner at raceresults@pprrun.org

If you have other questions about the race, please use the
contacts page at http://runpikespeak.com/contact/

Weather:

Course: Starts at the speed bump on Ruxton Avenue next to the Cog Railway
station. The course heads up Ruxton and connects to Barr Trail via the
spur trail. The turn around is Barr Camp. The finish is back down in
Mantou Springs near the power supply area along Hydro Street.

Timing Split locations are as follows:


Split Distance Cummulative Elevation
Start 0.000 Miles 0.000 Miles 6,570 feet
TopWUp 1.888 Miles 1.888 Miles 7,800 feet
NNUp 1.204 Miles 3.092 Miles 8,800 feet
78Up 1.510 Miles 4.602 Miles 9,400 feet
BCamp 1.702 Miles 6.304 Miles 10,200 feet
78Dn 1.702 Miles 8.006 Miles 9,400 feet
NNDn 1.510 Miles 9.516 Miles 8,800 feet
TopWDn 1.204 Miles 10.720 Miles 7,800 feet
Finish 1.855 Miles 12.575 Miles 6,620 feet
Descent 6.271 Miles 12.575 Miles 6,620 feet


 

12.58M

 
OPlc GPlc AGPlc Bib Name Sx Ag City Gun Chip Pace
1 1 1 M 25-29 330 Alex Nichols M 28 Colorado Springs CO 1:34:23 1:34:21 7:30/M
2 2 2 M 25-29 316 David Roche M 25 Millington MD 1:35:05 1:35:04 7:33/M
3 3 3 M 25-29 27 Scott Spillman M 27 Colorado Springs CO 1:39:44 1:39:43 7:56/M
4 4 1 M 35-39 178 Matthew Byrne M 38 Scranton PA 1:40:07 1:40:05 7:57/M
5 5 4 M 25-29 101 Jace Nye M 28 Kaysville UT 1:45:09 1:45:07 8:21/M
6 6 1 M 30-34 128 Christopher B Knott M 32 Denver CO 1:50:28 1:50:25 8:47/M
7 7 2 M 30-34 117 Daniel Verdi M 31 Denver CO 1:51:33 1:51:31 8:52/M
8 8 1 M 15-19 319 Dominic Carrese M 16 Colorado Springs CO 1:53:09 1:53:08 9:00/M
9 9 1 M 20-24 77 Pat Casterline M 23 Scranton PA 1:53:25 1:53:23 9:01/M
10 10 1 M 40-44 216 George Zack M 43 Broomfield CO 1:53:33 1:53:32 9:01/M
11 11 3 M 30-34 138 Frank Antonelli M 34 Fort Collins CO 1:54:11 1:54:09 9:04/M
12 12 2 M 40-44 209 Brad Poppele M 42 Manitou Springs CO 1:54:38 1:54:35 9:07/M
13 13 5 M 25-29 111 Eric Marshall M 29 State College PA 1:56:02 1:56:00 9:13/M
14 1 1 F 45-49 326 Laura Haefeli
New Age-Group Course Record!!!
      Age-Group: F45-49
      Previous Record:  1:58:06,
      set in 2011 by Lisa Goldsmith
      age 46, from Nederland CO
F 45 Del Norte CO 1:56:56 1:56:55 9:18/M
15 14 1 M 45-49 235 Brett S Wilson M 45 Hiko NV 1:56:59 1:56:56 9:18/M
16 15 2 M 35-39 322 David M Chamberlain M 37 Boulder CO 1:57:58 1:57:55 9:22/M
17 16 3 M 35-39 163 Derek Engard M 37 Littleton CO 1:59:04 1:59:02 9:28/M
18 17 6 M 25-29 92 Thomas Zero M 27 Oak Lawn IL 2:00:23 2:00:17 9:34/M
19 18 4 M 35-39 149 Jeremy Bradford M 35 Denver CO 2:00:32 2:00:28 9:35/M
20 19 4 M 30-34 317 Jeffery Paulson M 32 Boulder CO 2:01:57 2:01:54 9:41/M
21 2 1 F 30-34 141 Alison M Bryant F 34 Elkin NC 2:02:52 2:02:51 9:46/M
22 20 3 M 40-44 228 Don Solberg M 44 Peyton CO 2:03:45 2:03:42 9:50/M
23 21 5 M 35-39 154 Alan Enos M 36 Boulder CO 2:03:46 2:03:43 9:50/M
24 22 4 M 40-44 191 Sander Rigney M 40 Colorado Springs CO 2:03:57 2:03:52 9:51/M
25 23 5 M 30-34 33 Ryan S Kircher M 33 Denver CO 2:04:06 2:04:03 9:52/M
 
 
OPlc GPlc AGPlc Bib Name Sx Ag City Gun Chip Pace
26 24 2 M 15-19 19 Jeff Burbach M 19 Peyton CO 2:05:01 2:04:58 9:56/M
27 25 1 M 50-54 292 Jeffrey Pierce M 54 Colorado Springs CO 2:05:14 2:05:13 9:57/M
28 3 2 F 30-34 130 Amanda Ewing F 32 Colorado Springs CO 2:05:42 2:05:39 9:59/M
29 26 6 M 35-39 8 Dan Cockrell M 39 Colorado Springs CO 2:06:15 2:06:12 10:02/M
30 27 2 M 20-24 81 David B Stuart M 24 Manitou Springs CO 2:06:31 2:06:23 10:03/M
31 4 1 F 50-54 268 Kristi Anderson
New Age-Group Course Record!!!
      Age-Group: F50-54
      Previous Record:  2:20:15,
      set in 2005 by Vicki Martin
      age 51, from Colorado Springs CO
F 50 Longmont CO 2:06:50 2:06:47 10:05/M
32 28 2 M 45-49 252 Roger Giordano M 48 Pueblo CO 2:07:28 2:07:20 10:07/M
33 5 1 F 20-24 21 Sophia A Torres F 21 Cordova NM 2:07:53 2:07:49 10:10/M
34 29 5 M 40-44 201 Ben Fibbe M 41 Louisville CO 2:08:11 2:08:06 10:11/M
35 30 2 M 50-54 275 Bill W Wright M 51 Louisville CO 2:08:27 2:08:24 10:12/M
36 31 7 M 35-39 167 Cory Leppert M 38 Colorado Springs CO 2:08:47 2:08:42 10:14/M
37 32 1 M 55-59 302 Senovio L Torres M 59 Cordova NM 2:08:57 2:08:53 10:15/M
38 6 2 F 45-49 46 Shari Marshall F 46 Crested Butte CO 2:09:11 2:09:09 10:16/M
39 33 7 M 25-29 96 Joshua Coon M 28 Denver CO 2:09:54 2:09:52 10:19/M
40 34 3 M 45-49 49 Michael F Everson M 49 Colorado Springs CO 2:11:05 2:11:02 10:25/M
41 35 6 M 40-44 223 Christopher Mcbride M 43 Seattle WA 2:12:44 2:12:37 10:33/M
42 7 1 F 35-39 161 Marisa Asplund F 36 Durango CO 2:12:42 2:12:39 10:33/M
43 36 3 M 20-24 84 Zach T Condon M 24 Colorado Springs CO 2:12:55 2:12:53 10:34/M
44 8 1 F 40-44 194 Sheri Foster F 40 Calgary AB 2:13:18 2:13:14 10:35/M
45 37 3 M 50-54 286 David Mulligan M 52 Colorado Springs CO 2:13:57 2:13:52 10:38/M
46 38 8 M 35-39 180 David Bierbrauer M 39 Colorado Springs CO 2:14:36 2:14:33 10:42/M
47 39 9 M 35-39 169 Patrick Barrett M 38 Colorado Springs CO 2:14:58 2:14:56 10:44/M
48 40 7 M 40-44 210 Ross P Olson M 42 Moab UT 2:15:35 2:15:30 10:46/M
49 41 6 M 30-34 143 Travis Tabares M 34 Colorado Springs CO 2:16:58 2:16:54 10:53/M
50 9 3 F 45-49 331 Susan Nuzum F 46 Boulder CO 2:17:45 2:17:43 10:57/M
 
 
OPlc GPlc AGPlc Bib Name Sx Ag City Gun Chip Pace
51 10 2 F 20-24 325 Emily Fischer F 23 Colorado Springs CO 2:18:56 2:18:52 11:02/M
52 42 4 M 20-24 23 Daniel Cole M 23 Boulder CO 2:19:36 2:19:26 11:05/M
53 43 7 M 30-34 32 Ian Ratz M 32 Colorado Springs CO 2:20:23 2:20:17 11:09/M
54 44 4 M 45-49 247 Luis Pauka M 47 Colorado Springs CO 2:20:37 2:20:26 11:10/M
55 11 2 F 40-44 222 Katie Katalin F 43 Colorado Springs CO 2:20:47 2:20:41 11:11/M
56 45 5 M 20-24 80 David Reens M 24 Boulder CO 2:21:02 2:20:52 11:12/M
57 46 5 M 45-49 45 Craig Hilton M 45 Colorado Springs CO 2:21:27 2:21:20 11:14/M
58 47 8 M 40-44 44 Mike Teger M 44 Colorado Springs CO 2:21:30 2:21:26 11:15/M
59 12 1 F 10-14 13 Kayli Tabares
New Age-Group Course Record!!!
      Age-Group: F1-14
      Previous Record:  2:30:53,
      set in 2004 by Desiree Romero
      age 12, from Colorado Springs CO
F 13 Colorado Springs CO 2:21:34 2:21:30 11:15/M
60 48 10 M 35-39 155 Yoni Fridman M 36 Divide CO 2:21:46 2:21:41 11:16/M
61 49 1 M 60-64 62 Doug Brandmier M 62 Longmont CO 2:21:57 2:21:51 11:17/M
62 50 1 M 65-69 66 Ray Eck
New Age-Group Course Record!!!
      Age-Group: M65-69
      Previous Record:  2:23:08,
      set in 2002 by Glen Ash
      age 65, from Colorado Springs CO
M 66 Colorado Springs CO 2:22:02 2:22:00 11:17/M
63 51 4 M 50-54 50 Julius A Kovats M 50 Manitou Springs CO 2:22:43 2:22:38 11:20/M
64 52 8 M 25-29 29 Micah J Morgan M 29 Peyton CO 2:23:22 2:23:17 11:23/M
65 13 2 F 35-39 329 Leigh Ann Lawrentz F 39 Colorado Springs CO 2:23:32 2:23:27 11:24/M
66 53 8 M 30-34 31 Chris E Rehorn M 31 Colorado Springs CO 2:23:36 2:23:29 11:24/M
67 54 9 M 30-34 124 Andrew Gzybowski M 31 Larkspur CO 2:23:52 2:23:43 11:25/M
68 14 1 F 15-19 18 Regan Mullen F 18 Colorado Springs CO 2:23:56 2:23:53 11:26/M
69 55 9 M 40-44 225 Thom Bateman M 44 Colorado Springs CO 2:24:32 2:24:25 11:29/M
70 56 6 M 20-24 83 Colin Fay M 24 Aurora CO 2:24:42 2:24:35 11:30/M
71 57 10 M 40-44 207 Darren Muse M 42 Colorado Springs CO 2:24:46 2:24:42 11:30/M
72 58 7 M 20-24 74 Connor Bruson M 21 Colorado Springs CO 2:25:34 2:25:28 11:34/M
73 59 11 M 35-39 183 Jason D Jungbauer M 39 Manitou Springs CO 2:25:57 2:25:48 11:35/M
74 15 3 F 30-34 132 Alison Naney F 32 Mazama WA 2:25:52 2:25:49 11:35/M
75 60 10 M 30-34 121 Ryan Ficco M 31 Miami FL 2:26:03 2:25:54 11:36/M
 
 
OPlc GPlc AGPlc Bib Name Sx Ag City Gun Chip Pace
76 61 6 M 45-49 237 Timothy Gore M 46 Colorado Springs CO 2:26:07 2:25:58 11:36/M
77 16 4 F 45-49 318 Susan Carrese F 48 Colorado Springs CO 2:26:08 2:25:58 11:36/M
78 62 11 M 40-44 217 Michael Hartley M 43 Divide CO 2:26:18 2:26:14 11:37/M
79 63 7 M 45-49 251 Anthony Tarantino M 48 Colorado Springs CO 2:26:28 2:26:23 11:38/M
80 64 11 M 30-34 113 Ryan Hewitt M 30 Colorado Springs CO 2:26:42 2:26:33 11:39/M
81 65 2 M 60-64 6 Richard L Park M 60 Colorado Springs CO 2:27:09 2:27:05 11:42/M
82 17 1 F 25-29 95 Liz Sanchez F 28 Denver CO 2:27:11 2:27:06 11:42/M
83 18 3 F 35-39 170 Amy Perez F 38 Colorado Springs CO 2:27:28 2:27:24 11:43/M
84 66 12 M 35-39 176 Daniel Chacon M 38 Colorado Springs CO 2:27:31 2:27:25 11:43/M
85 67 12 M 30-34 118 Benjamin Mccrary M 31 Pagosa Springs CO 2:27:45 2:27:39 11:44/M
86 19 2 F 50-54 5 Kimberly Greer F 52 Larkspur CO 2:28:32 2:28:26 11:48/M
87 68 12 M 40-44 40 Dillon Harder M 40 Monument CO 2:28:36 2:28:26 11:48/M
88 20 4 F 30-34 142 Julie Powell F 34 Colorado Springs CO 2:28:35 2:28:30 11:48/M
89 21 5 F 45-49 256 Teri Harper F 49 Woodland Park CO 2:28:53 2:28:44 11:49/M
90 69 8 M 45-49 48 John Clarke M 48 Colorado Springs CO 2:29:12 2:29:08 11:51/M
91 70 13 M 35-39 173 Lowell Armstrong M 38 Peyton CO 2:29:21 2:29:12 11:52/M
92 71 14 M 35-39 174 Curtis Hamstra M 38 Colorado Springs CO 2:29:50 2:29:46 11:54/M
93 22 3 F 40-44 41 Amelia Taylor F 41 Colorado Springs CO 2:29:55 2:29:48 11:54/M
94 23 2 F 25-29 91 Jessica Emmons F 26 Colorado Springs CO 2:30:11 2:30:01 11:56/M
95 72 13 M 30-34 126 Adam T Thesing M 32 Colorado Springs CO 2:30:24 2:30:18 11:57/M
96 73 5 M 50-54 270 Brad Curtis M 51 Colorado Springs CO 2:30:34 2:30:28 11:58/M
97 74 15 M 35-39 37 Mark Zandarski M 37 Colorado Springs CO 2:30:55 2:30:47 11:59/M
98 24 4 F 40-44 189 Renee Renn F 40 Colorado Springs CO 2:31:30 2:31:24 12:02/M
99 75 9 M 25-29 89 Keith Buckley M 26 Divide CO 2:32:15 2:32:03 12:05/M
100 76 13 M 40-44 215 Ronald Mccall M 43 Manitou Springs CO 2:32:12 2:32:06 12:05/M
 
 
OPlc GPlc AGPlc Bib Name Sx Ag City Gun Chip Pace
101 25 6 F 45-49 261 Sheri Wright F 49 Louisville CO 2:32:25 2:32:20 12:07/M
102 26 5 F 40-44 212 Laurice Lopez-Cepero F 42 Pueblo CO 2:32:30 2:32:20 12:07/M
103 77 14 M 40-44 200 Andrew Rose M 41 Parker CO 2:32:50 2:32:45 12:09/M
104 78 16 M 35-39 151 John Martin M 35 Colorado Springs CO 2:33:28 2:33:16 12:11/M
105 79 9 M 45-49 239 Shawn Sturm M 46 Colorado Springs CO 2:33:38 2:33:32 12:12/M
106 80 3 M 60-64 312 Dave M Diaz M 64 Pueblo CO 2:33:47 2:33:36 12:13/M
107 27 5 F 30-34 122 Cheryl Ficco F 31 Miami FL 2:33:52 2:33:42 12:13/M
108 81 3 M 15-19 17 Daniel Morse M 17 Bennett CO 2:34:21 2:34:08 12:15/M
109 28 3 F 50-54 267 Sharon A Greenbaum F 50 Colorado Springs CO 2:34:20 2:34:14 12:16/M
110 82 17 M 35-39 36 Walker Secker M 36 Colorado Springs CO 2:34:59 2:34:49 12:18/M
111 83 6 M 50-54 53 Bill Birnbaum M 53 Colorado Springs CO 2:35:01 2:34:54 12:19/M
112 29 3 F 25-29 94 Sarah Blakeslee F 28 Colorado Springs CO 2:35:09 2:34:56 12:19/M
113 84 10 M 45-49 258 Daniel Lee M 49 Colorado Springs CO 2:35:11 2:35:03 12:20/M
114 30 6 F 40-44 211 Kelly K Olson F 42 Moab UT 2:35:36 2:35:31 12:22/M
115 31 4 F 25-29 107 Kelly Ping F 29 Colorado Springs CO 2:35:44 2:35:34 12:22/M
116 85 4 M 15-19 20 Kevin L Graves M 16 Colorado Springs CO 2:35:53 2:35:49 12:23/M
117 86 11 M 45-49 246 Tony L Hogie M 47 Colorado Springs CO 2:36:03 2:35:54 12:24/M
118 32 5 F 25-29 105 Robyn R Creech F 29 Colorado Springs CO 2:36:00 2:35:54 12:24/M
119 33 3 F 20-24 73 Megan Hyatt F 21 Littleton CO 2:36:04 2:35:59 12:24/M
120 87 7 M 50-54 288 Todd Hyatt M 53 Littleton CO 2:36:04 2:35:59 12:24/M
121 88 4 M 60-64 60 Danny J Gray M 60 Colorado Springs CO 2:36:23 2:36:10 12:25/M
122 89 1 M 10-14 11 Weston J Sullivan M 11 Colorado Springs CO 2:36:39 2:36:27 12:26/M
123 90 12 M 45-49 240 Paul Sullivan M 46 Colorado Springs CO 2:36:51 2:36:40 12:27/M
124 34 4 F 35-39 181 Amy Y Harder F 39 Monument CO 2:37:04 2:36:56 12:28/M
125 35 4 F 50-54 290 Holli Harper F 53 Colorado Springs CO 2:37:22 2:37:10 12:30/M
 
 
OPlc GPlc AGPlc Bib Name Sx Ag City Gun Chip Pace
126 91 18 M 35-39 185 Larry L White M 39 Fountain CO 2:37:25 2:37:14 12:30/M
127 92 13 M 45-49 254 Darren Lindblom M 48 Colorado Springs CO 2:38:05 2:37:59 12:33/M
128 93 5 M 60-64 1 Phil Goulding M 62 Colorado Springs CO 2:38:09 2:38:06 12:34/M
129 94 14 M 30-34 115 Jeffrey A Wilson M 30 Colorado Springs CO 2:39:21 2:39:13 12:39/M
130 95 10 M 25-29 97 Alex Baird M 28 Colorado Springs CO 2:39:33 2:39:21 12:40/M
131 96 15 M 40-44 196 Robert Powell M 40 Colorado Springs CO 2:40:22 2:40:17 12:44/M
132 36 5 F 35-39 153 Jessica Bell F 35 Colorado Springs CO 2:40:29 2:40:22 12:45/M
133 97 14 M 45-49 250 Troy Rogula M 48 Pueblo CO 2:40:30 2:40:24 12:45/M
134 98 15 M 30-34 135 Russell S Mark M 33 Colorado Springs CO 2:40:48 2:40:37 12:46/M
135 99 16 M 30-34 140 George Heidinger M 34 Colorado Springs CO 2:40:53 2:40:42 12:46/M
136 37 7 F 40-44 197 Elisa Sundahl F 40 Monument CO 2:40:52 2:40:45 12:47/M
137 38 4 F 20-24 24 Becca Greer F 24 Larkspur CO 2:41:12 2:41:04 12:48/M
138 100 15 M 45-49 264 Michael A Boice M 49 Colorado Springs CO 2:41:19 2:41:13 12:49/M
139 101 8 M 50-54 277 Peter A Tonsits M 51 Colorado Springs CO 2:41:35 2:41:27 12:50/M
140 102 16 M 45-49 265 Doyle Baker M 49 Colorado Springs CO 2:41:58 2:41:52 12:52/M
141 103 16 M 40-44 226 Timothy Dolan M 44 Colorado Springs CO 2:42:20 2:41:54 12:52/M
142 39 5 F 50-54 3 Mary Toman F 50 Colorado Springs CO 2:42:36 2:42:28 12:55/M
143 40 8 F 40-44 229 Jo Ann Davis F 44 Colorado Springs CO 2:42:47 2:42:39 12:56/M
144 104 8 M 20-24 82 Aaron M Levinson M 24 Pueblo CO 2:42:54 2:42:44 12:56/M
145 105 19 M 35-39 172 Brent Ganzer M 38 Denver CO 2:43:07 2:42:56 12:57/M
146 106 20 M 35-39 171 Erik A Juno M 38 Pueblo CO 2:43:09 2:42:56 12:57/M
147 107 9 M 20-24 79 Steven Wancewicz M 24 Denver CO 2:43:20 2:43:08 12:58/M
148 108 17 M 30-34 133 Fred Sanchez M 32 Trinidad CO 2:43:19 2:43:15 12:59/M
149 109 18 M 30-34 120 Jonas H Oltman M 31 Pueblo CO 2:43:29 2:43:21 12:59/M
150 41 6 F 50-54 281 Sonya Norris F 52 Colorado Springs CO 2:43:36 2:43:24 12:59/M
 
 
OPlc GPlc AGPlc Bib Name Sx Ag City Gun Chip Pace
151 110 9 M 50-54 272 Joseph Castillo M 51 Colorado Springs CO 2:43:34 2:43:28 13:00/M
152 111 21 M 35-39 187 Mike P Samples M 39 El Reno OK 2:43:44 2:43:33 13:00/M
153 42 6 F 25-29 102 Keri Kosloski F 28 Morrison CO 2:43:49 2:43:39 13:01/M
154 43 9 F 40-44 188 Paula J Mccabe F 40 Pueblo CO 2:43:54 2:43:45 13:01/M
155 44 7 F 25-29 85 Gabby Robinson F 25 Denver CO 2:44:01 2:43:50 13:01/M
156 45 6 F 35-39 38 Brooke S Cote F 38 Manitou Springs CO 2:44:05 2:43:58 13:02/M
157 112 17 M 45-49 259 Mark Burbach M 49 Peyton CO 2:44:12 2:43:59 13:02/M
158 46 10 F 40-44 199 Kristina Walick F 40 Colorado Springs CO 2:44:06 2:44:02 13:02/M
159 113 6 M 60-64 309 John Vohland M 61 Colorado Springs CO 2:44:12 2:44:03 13:02/M
160 114 5 M 15-19 63 Hayden T Smith M 19 Colorado Springs CO 2:44:13 2:44:06 13:03/M
161 115 10 M 50-54 54 Mark Haisley M 54 Colorado Springs CO 2:44:34 2:44:29 13:04/M
162 116 11 M 50-54 269 Douglas J Smith M 51 Colorado Springs CO 2:44:50 2:44:39 13:05/M
163 117 12 M 50-54 285 Felix Colonnieves M 52 Colorado Springs CO 2:44:54 2:44:47 13:06/M
164 118 17 M 40-44 204 Keith Remington M 41 Littleton CO 2:45:08 2:45:03 13:07/M
165 119 2 M 55-59 293 Mike Lloyd M 55 Green Mountain Falls CO 2:45:17 2:45:09 13:08/M
166 120 6 M 15-19 15 Nick Cordaro M 15 Colorado Springs CO 2:45:35 2:45:25 13:09/M
167 47 7 F 35-39 152 Kate N Krug F 35 Garden City KS 2:45:52 2:45:43 13:10/M
168 48 8 F 25-29 28 Paige Felker F 28 Colorado Springs CO 2:45:58 2:45:47 13:11/M
169 49 6 F 30-34 125 Jessica A Norsky F 32 Aurora CO 2:45:57 2:45:50 13:11/M
170 121 7 M 60-64 307 Rufus T Firefly M 60 Palmer Lake CO 2:46:12 2:46:08 13:12/M
171 50 7 F 30-34 144 Lisa Bejarano F 34 Manitou Springs CO 2:47:13 2:47:06 13:17/M
172 51 7 F 45-49 262 Nancy Lecky F 49 Woodland Park CO 2:47:15 2:47:06 13:17/M
173 122 2 M 65-69 67 Darrell Weaver M 67 Colorado Springs CO 2:47:24 2:47:18 13:18/M
174 123 13 M 50-54 52 Paul Labar M 52 Pueblo CO 2:47:29 2:47:19 13:18/M
175 124 19 M 30-34 131 Tim Liemandt M 32 Colorado Springs CO 2:48:27 2:48:12 13:22/M
 
 
OPlc GPlc AGPlc Bib Name Sx Ag City Gun Chip Pace
176 52 7 F 50-54 324 Suzanne J Cote F 51 Manitou Springs CO 2:49:13 2:49:08 13:27/M
177 53 8 F 50-54 284 Teresa Diamond F 52 Woodland Park CO 2:49:31 2:49:21 13:28/M
178 125 22 M 35-39 159 Christoph Zurcher M 36 Colorado Springs CO 2:49:37 2:49:30 13:28/M
179 54 8 F 35-39 179 Lindsay Cavner F 38 Colorado Springs CO 2:49:45 2:49:39 13:29/M
180 55 9 F 25-29 100 Jacquelyn R Garcia F 28 Houston TX 2:49:53 2:49:43 13:29/M
181 56 9 F 50-54 282 Kyra Shimizu F 52 Louisville CO 2:50:04 2:49:56 13:30/M
182 126 14 M 50-54 279 David O'Rourke M 52 Colorado Springs CO 2:50:19 2:50:09 13:32/M
183 57 10 F 25-29 86 Melissa Judge F 25 Colorado Springs CO 2:52:40 2:52:29 13:43/M
184 127 3 M 55-59 55 Patrick J Murphy M 55 Colorado Springs CO 2:52:40 2:52:32 13:43/M
185 58 11 F 25-29 98 Erin Reger F 28 Denver CO 2:53:05 2:52:55 13:45/M
186 128 18 M 40-44 203 Michael De Sordi M 41 Manitou Springs CO 2:53:33 2:53:20 13:47/M
187 59 1 F 60-64 311 Shane Holonitch F 62 Englewood CO 2:53:25 2:53:25 13:47/M
188 60 5 F 20-24 76 Kelley Heffner F 23 Clarksburg MD 2:53:49 2:53:39 13:48/M
189 61 8 F 45-49 241 Kim L Vehige F 46 Colorado Springs CO 2:54:07 2:53:58 13:50/M
190 62 10 F 50-54 283 Stacey A Diaz F 52 Pueblo CO 2:54:22 2:54:14 13:51/M
191 129 3 M 65-69 313 Jim Kerr M 65 Colorado Springs CO 2:54:47 2:54:39 13:53/M
192 63 12 F 25-29 103 Erin N Hammond F 29 Colorado Springs CO 2:54:47 2:54:43 13:53/M
193 130 4 M 55-59 299 Ed Gleason M 58 Colorado Springs CO 2:55:01 2:54:54 13:54/M
194 64 13 F 25-29 88 Emily G Seidelman F 26 Colorado Springs CO 2:55:30 2:55:24 13:57/M
195 65 6 F 20-24 72 Kristen Selke F 21 Colorado Springs CO 2:56:21 2:56:12 14:00/M
196 131 23 M 35-39 175 Michael F Porach M 38 Colorado Springs CO 2:57:25 2:57:19 14:06/M
197 132 19 M 40-44 220 Alex Wolbrink M 43 Colorado Springs CO 2:57:33 2:57:24 14:06/M
198 133 18 M 45-49 260 Matt Hopper M 49 Colorado Springs CO 2:57:44 2:57:33 14:07/M
199 66 11 F 40-44 221 Ml Wolbrink F 43 Colorado Springs CO 2:57:42 2:57:34 14:07/M
200 67 12 F 40-44 42 Christina Mcdonough F 42 Colorado Springs CO 2:57:49 2:57:40 14:07/M
 
 
OPlc GPlc AGPlc Bib Name Sx Ag City Gun Chip Pace
201 134 19 M 45-49 245 Hamid Naseri M 47 Houston TX 2:57:51 2:57:47 14:08/M
202 135 15 M 50-54 280 Erik Buzzard M 52 Amarillo TX 2:59:04 2:58:52 14:13/M
203 136 16 M 50-54 273 Timothy Morse M 51 Bennett CO 2:59:08 2:58:54 14:13/M
204 68 14 F 25-29 332 Sheva Willoughby F 26 Colorado Springs CO 2:59:17 2:59:05 14:14/M
205 137 5 M 55-59 57 Steve Watz M 57 Woodland Park CO 2:59:48 2:59:23 14:16/M
206 69 2 F 60-64 304 Paulette Arns F 60 Pueblo CO 2:59:33 2:59:23 14:16/M
207 70 13 F 40-44 230 Tracy Kneisler F 44 Los Alamos NM 2:59:59 2:59:48 14:18/M
208 138 2 M 10-14 12 Tyler Christians M 12 Castle Rock CO 3:00:01 2:59:53 14:18/M
209 139 20 M 45-49 257 Peter Parker M 49 Fort Collins CO 3:00:26 3:00:12 14:19/M
210 71 14 F 40-44 43 Monica Brisnehan F 43 Denver CO 3:00:34 3:00:24 14:20/M
211 72 9 F 35-39 184 Diona Lorenz F 39 Colorado Springs CO 3:03:14 3:03:04 14:33/M
212 73 15 F 40-44 224 Julie Campbell F 44 Colorado Springs CO 3:03:38 3:03:25 14:35/M
213 140 24 M 35-39 35 Matthew Wells M 35 Colorado Springs CO 3:03:35 3:03:25 14:35/M
214 74 10 F 35-39 160 Krista M Willard F 36 Colorado Springs CO 3:03:47 3:03:35 14:36/M
215 141 4 M 65-69 314 Jay A Fenberg M 66 Cloudcroft NM 3:03:50 3:03:41 14:36/M
216 142 25 M 35-39 145 Alireza Ashtari M 35 Houston TX 3:03:57 3:03:54 14:37/M
217 143 20 M 40-44 218 Robert Stein M 43 Woodland Park CO 3:06:34 3:06:27 14:49/M
218 144 11 M 25-29 90 Gregory Smith M 26 Denver CO 3:06:49 3:06:39 14:50/M
219 75 16 F 40-44 195 Heidi Robinson F 40 Longmont CO 3:07:26 3:07:18 14:53/M
220 145 1 M 75-79 2 Glen L Ash M 76 Colorado Springs CO 3:07:26 3:07:19 14:53/M
221 146 12 M 25-29 25 Daniel M Torres M 25 Cordova NM 3:08:28 3:08:18 14:58/M
222 147 6 M 55-59 297 Chuck Buckley M 58 Divide CO 3:08:57 3:08:42 15:00/M
223 148 20 M 30-34 116 Eleazar Herevia M 30 Del Valle TX 3:09:28 3:09:15 15:03/M
224 149 21 M 40-44 198 Mike Hunsberger M 40 Colorado Springs CO 3:09:37 3:09:29 15:04/M
225 76 11 F 35-39 165 Holly Reid F 37 Longmont CO 3:09:55 3:09:46 15:05/M
 
 
OPlc GPlc AGPlc Bib Name Sx Ag City Gun Chip Pace
226 77 11 F 50-54 320 Judy Adair F 54 Colorado Springs CO 3:09:59 3:09:51 15:05/M
227 78 8 F 30-34 123 Meredith Roberts F 31 Evergreen CO 3:10:15 3:10:05 15:07/M
228 79 15 F 25-29 106 Lindsay M Johnson F 29 Evergreen CO 3:10:15 3:10:05 15:07/M
229 150 17 M 50-54 51 Bart Terry M 51 Colorado Springs CO 3:10:15 3:10:05 15:07/M
230 80 9 F 30-34 137 Olivia Zebrowski F 34 Colorado Springs CO 3:11:40 3:11:27 15:13/M
231 81 9 F 45-49 242 Kim Edwards F 46 Littleton CO 3:11:36 3:11:29 15:13/M
232 82 12 F 35-39 166 Jessica Serrano F 38 Colorado Springs CO 3:12:57 3:12:48 15:20/M
233 83 10 F 30-34 30 Olivia Gorman F 30 Colorado Springs CO 3:13:07 3:12:55 15:20/M
234 151 21 M 45-49 233 Jim Hawken M 45 Colorado Springs CO 3:13:06 3:12:59 15:20/M
235 152 7 M 55-59 295 Stanley Moore M 55 Pueblo CO 3:15:33 3:15:20 15:32/M
236 84 17 F 40-44 219 Heidi Hawken F 43 Colorado Springs CO 3:16:13 3:16:06 15:35/M
237 85 2 F 10-14 10 Leah Christians F 10 Castle Rock CO 3:16:32 3:16:24 15:37/M
238 153 21 M 30-34 139 Adam Christians M 34 Castle Rock CO 3:16:33 3:16:24 15:37/M
239 154 26 M 35-39 158 Kristopher Black M 36 Pueblo CO 3:16:39 3:16:27 15:37/M
240 155 27 M 35-39 162 Sean A Zebrowski M 37 Colorado Springs CO 3:16:46 3:16:32 15:37/M
241 86 18 F 40-44 231 Angel Brock F 44 Fountain CO 3:17:24 3:17:09 15:40/M
242 156 28 M 35-39 146 Ken Cupples M 35 Colorado Springs CO 3:17:34 3:17:22 15:41/M
243 87 13 F 35-39 156 Kari L Taylor F 36 Colorado Springs CO 3:17:38 3:17:25 15:42/M
244 88 10 F 45-49 238 Diana Cordaro F 46 Colorado Springs CO 3:17:37 3:17:26 15:42/M
245 89 1 F 55-59 4 Susan Gallup F 55 Fort Collins CO 3:20:22 3:20:17 15:55/M
246 157 8 M 55-59 298 Daniel W Adams M 58 Colorado Springs CO 3:20:48 3:20:43 15:57/M
247 158 22 M 40-44 227 Clifford Mullen M 44 Colorado Springs CO 3:21:44 3:21:40 16:02/M
248 159 18 M 50-54 274 Dave L York M 51 Colorado Springs CO 3:22:04 3:21:49 16:03/M
249 90 11 F 45-49 234 Stephanie Atencio F 45 Colorado Springs CO 3:22:49 3:22:36 16:06/M
250 160 9 M 55-59 300 Win Macklin M 59 Colorado Springs CO 3:23:16 3:23:02 16:08/M
 
 
OPlc GPlc AGPlc Bib Name Sx Ag City Gun Chip Pace
251 161 10 M 55-59 303 Terry Petrie M 59 Lafayette CO 3:24:21 3:24:07 16:14/M
252 91 16 F 25-29 108 Chelsea L Harris F 29 Broomfield CO 3:25:11 3:24:58 16:18/M
253 162 8 M 60-64 308 Roger Sajak M 60 Colorado Springs CO 3:25:13 3:25:02 16:18/M
254 92 17 F 25-29 110 Amy Zero F 29 Rock Island IL 3:27:50 3:27:37 16:30/M
255 163 7 M 15-19 16 Taylor Dolan M 16 Colorado Springs CO 3:28:15 3:27:49 16:31/M
256 164 11 M 55-59 294 Tony Wolusky M 55 Colorado Springs CO 3:28:27 3:28:18 16:33/M
257 93 3 F 60-64 310 Lynn Alford F 61 Las Cruces NM 3:29:40 3:29:31 16:39/M
258 94 12 F 45-49 243 Kim L Van Wagner F 46 Littleton CO 3:30:44 3:30:33 16:44/M
259 165 2 M 75-79 75 Tom Alford M 75 Las Cruces NM 3:30:45 3:30:37 16:45/M
260 95 13 F 45-49 253 Gale T Marchand F 48 Lonsdale MN 3:32:10 3:31:59 16:51/M
261 166 22 M 45-49 244 James Vivian M 47 Colorado Springs CO 3:35:45 3:35:33 17:08/M